sensor_id;sensor_type;location;lat;lon;timestamp;pressure;altitude;pressure_sealevel;temperature;humidity
43420;BME280;29017;51.514;-0.178;2023-01-31T00:00:13;102264.53;;;7.68;79.63
43420;BME280;29017;51.514;-0.178;2023-01-31T00:02:41;102261.84;;;7.70;79.81
43420;BME280;29017;51.514;-0.178;2023-01-31T00:05:08;102257.31;;;7.72;80.00
43420;BME280;29017;51.514;-0.178;2023-01-31T00:07:35;102259.94;;;7.72;79.42
43420;BME280;29017;51.514;-0.178;2023-01-31T00:10:03;102247.59;;;7.74;78.65
43420;BME280;29017;51.514;-0.178;2023-01-31T00:12:30;102260.59;;;7.76;77.58
43420;BME280;29017;51.514;-0.178;2023-01-31T00:14:57;102272.56;;;7.80;77.40
43420;BME280;29017;51.514;-0.178;2023-01-31T00:17:24;102280.31;;;7.81;76.97
43420;BME280;29017;51.514;-0.178;2023-01-31T00:19:51;102270.69;;;7.82;76.68
43420;BME280;29017;51.514;-0.178;2023-01-31T00:22:18;102262.06;;;7.80;76.50
43420;BME280;29017;51.514;-0.178;2023-01-31T00:24:45;102268.16;;;7.80;76.70
43420;BME280;29017;51.514;-0.178;2023-01-31T00:27:12;102262.72;;;7.83;77.54
43420;BME280;29017;51.514;-0.178;2023-01-31T00:29:39;102252.13;;;7.85;78.34
43420;BME280;29017;51.514;-0.178;2023-01-31T00:32:06;102229.50;;;7.84;78.04
43420;BME280;29017;51.514;-0.178;2023-01-31T00:34:33;102222.69;;;7.81;77.57
43420;BME280;29017;51.514;-0.178;2023-01-31T00:37:01;102220.91;;;7.82;77.33
43420;BME280;29017;51.514;-0.178;2023-01-31T00:39:28;102214.63;;;7.84;77.20
43420;BME280;29017;51.514;-0.178;2023-01-31T00:41:55;102215.38;;;7.86;76.57
43420;BME280;29017;51.514;-0.178;2023-01-31T00:44:22;102217.88;;;7.88;76.72
43420;BME280;29017;51.514;-0.178;2023-01-31T00:46:49;102210.75;;;7.90;77.19
43420;BME280;29017;51.514;-0.178;2023-01-31T00:49:16;102214.44;;;7.87;77.80
43420;BME280;29017;51.514;-0.178;2023-01-31T00:51:43;102214.53;;;7.86;77.58
43420;BME280;29017;51.514;-0.178;2023-01-31T00:54:10;102215.16;;;7.89;79.31
43420;BME280;29017;51.514;-0.178;2023-01-31T00:56:37;102205.41;;;7.91;78.25
43420;BME280;29017;51.514;-0.178;2023-01-31T00:59:03;102206.25;;;7.92;77.60
43420;BME280;29017;51.514;-0.178;2023-01-31T01:01:34;102207.28;;;7.89;78.30
43420;BME280;29017;51.514;-0.178;2023-01-31T01:04:01;102210.97;;;7.87;78.25
43420;BME280;29017;51.514;-0.178;2023-01-31T01:06:28;102217.88;;;7.88;77.13
43420;BME280;29017;51.514;-0.178;2023-01-31T01:08:55;102213.47;;;7.88;77.29
43420;BME280;29017;51.514;-0.178;2023-01-31T01:11:25;102207.28;;;7.89;77.30
43420;BME280;29017;51.514;-0.178;2023-01-31T01:13:52;102200.38;;;7.88;77.24
43420;BME280;29017;51.514;-0.178;2023-01-31T01:16:20;102200.38;;;7.88;77.55
43420;BME280;29017;51.514;-0.178;2023-01-31T01:18:47;102204.66;;;7.89;77.79
43420;BME280;29017;51.514;-0.178;2023-01-31T01:21:17;102202.06;;;7.89;78.08
43420;BME280;29017;51.514;-0.178;2023-01-31T01:23:45;102193.34;;;7.89;77.91
43420;BME280;29017;51.514;-0.178;2023-01-31T01:26:14;102199.66;;;7.86;77.47
43420;BME280;29017;51.514;-0.178;2023-01-31T01:28:42;102192.72;;;7.85;78.00
43420;BME280;29017;51.514;-0.178;2023-01-31T01:31:09;102189.16;;;7.86;78.27
43420;BME280;29017;51.514;-0.178;2023-01-31T01:33:36;102193.34;;;7.89;78.27
43420;BME280;29017;51.514;-0.178;2023-01-31T01:36:04;102178.28;;;7.92;78.76
43420;BME280;29017;51.514;-0.178;2023-01-31T01:38:33;102181.53;;;7.96;78.07
43420;BME280;29017;51.514;-0.178;2023-01-31T01:41:00;102182.16;;;7.99;77.79
43420;BME280;29017;51.514;-0.178;2023-01-31T01:45:57;102168.03;;;8.02;77.34
43420;BME280;29017;51.514;-0.178;2023-01-31T01:48:24;102176.59;;;8.04;78.21
43420;BME280;29017;51.514;-0.178;2023-01-31T01:50:53;102171.16;;;8.07;78.22
43420;BME280;29017;51.514;-0.178;2023-01-31T01:53:20;102180.06;;;8.04;77.49
43420;BME280;29017;51.514;-0.178;2023-01-31T01:55:50;102182.69;;;8.04;78.73
43420;BME280;29017;51.514;-0.178;2023-01-31T01:58:22;102187.94;;;8.04;78.13
43420;BME280;29017;51.514;-0.178;2023-01-31T02:00:49;102184.59;;;8.02;77.68
43420;BME280;29017;51.514;-0.178;2023-01-31T02:03:17;102184.59;;;8.02;78.16
43420;BME280;29017;51.514;-0.178;2023-01-31T02:05:44;102191.47;;;8.03;77.84
43420;BME280;29017;51.514;-0.178;2023-01-31T02:08:13;102188.03;;;8.03;79.13
43420;BME280;29017;51.514;-0.178;2023-01-31T02:10:43;102189.94;;;8.01;79.16
43420;BME280;29017;51.514;-0.178;2023-01-31T02:13:12;102185.00;;;7.96;79.04
43420;BME280;29017;51.514;-0.178;2023-01-31T02:15:40;102179.94;;;7.93;80.07
43420;BME280;29017;51.514;-0.178;2023-01-31T02:18:07;102174.81;;;7.92;79.73
43420;BME280;29017;51.514;-0.178;2023-01-31T02:50:26;102134.47;;;8.20;81.14
43420;BME280;29017;51.514;-0.178;2023-01-31T02:52:57;102140.56;;;8.20;80.62
43420;BME280;29017;51.514;-0.178;2023-01-31T02:57:56;102142.00;;;8.24;80.82
43420;BME280;29017;51.514;-0.178;2023-01-31T03:00:23;102139.28;;;8.26;80.61
43420;BME280;29017;51.514;-0.178;2023-01-31T03:02:51;102133.97;;;8.27;80.98
43420;BME280;29017;51.514;-0.178;2023-01-31T03:05:19;102136.44;;;8.29;80.75
43420;BME280;29017;51.514;-0.178;2023-01-31T03:07:48;102133.53;;;8.33;81.57
43420;BME280;29017;51.514;-0.178;2023-01-31T03:12:50;102127.34;;;8.34;81.24
43420;BME280;29017;51.514;-0.178;2023-01-31T03:20:22;102125.81;;;8.32;81.42
43420;BME280;29017;51.514;-0.178;2023-01-31T03:22:53;102116.03;;;8.34;81.19
43420;BME280;29017;51.514;-0.178;2023-01-31T03:25:22;102110.59;;;8.37;81.38
43420;BME280;29017;51.514;-0.178;2023-01-31T03:27:51;102121.19;;;8.35;81.68
43420;BME280;29017;51.514;-0.178;2023-01-31T03:30:23;102107.22;;;8.35;81.66
43420;BME280;29017;51.514;-0.178;2023-01-31T03:35:24;102102.81;;;8.35;81.87
43420;BME280;29017;51.514;-0.178;2023-01-31T03:37:55;102116.53;;;8.39;81.31
43420;BME280;29017;51.514;-0.178;2023-01-31T03:40:26;102112.03;;;8.41;81.20
43420;BME280;29017;51.514;-0.178;2023-01-31T03:42:58;102095.47;;;8.40;81.23
43420;BME280;29017;51.514;-0.178;2023-01-31T03:45:29;102068.41;;;8.40;82.03
43420;BME280;29017;51.514;-0.178;2023-01-31T03:47:58;102074.50;;;8.40;81.77
43420;BME280;29017;51.514;-0.178;2023-01-31T03:50:28;102080.34;;;8.44;81.44
43420;BME280;29017;51.514;-0.178;2023-01-31T03:55:30;102071.34;;;8.48;81.69
43420;BME280;29017;51.514;-0.178;2023-01-31T03:57:57;102064.81;;;8.53;81.12
43420;BME280;29017;51.514;-0.178;2023-01-31T04:00:26;102064.59;;;8.56;81.36
43420;BME280;29017;51.514;-0.178;2023-01-31T04:02:58;102067.13;;;8.58;81.38
43420;BME280;29017;51.514;-0.178;2023-01-31T04:05:27;102065.22;;;8.60;81.93
43420;BME280;29017;51.514;-0.178;2023-01-31T04:07:58;102074.53;;;8.64;81.73
43420;BME280;29017;51.514;-0.178;2023-01-31T04:10:25;102069.09;;;8.67;81.42
43420;BME280;29017;51.514;-0.178;2023-01-31T04:12:52;102072.66;;;8.66;81.26
43420;BME280;29017;51.514;-0.178;2023-01-31T04:15:19;102071.81;;;8.66;81.00
43420;BME280;29017;51.514;-0.178;2023-01-31T04:17:48;102072.66;;;8.66;81.50
43420;BME280;29017;51.514;-0.178;2023-01-31T04:20:15;102066.47;;;8.67;82.09
43420;BME280;29017;51.514;-0.178;2023-01-31T04:22:42;102069.78;;;8.69;81.65
43420;BME280;29017;51.514;-0.178;2023-01-31T04:25:09;102066.31;;;8.69;81.99
43420;BME280;29017;51.514;-0.178;2023-01-31T04:27:37;102071.47;;;8.70;81.88
43420;BME280;29017;51.514;-0.178;2023-01-31T04:30:05;102080.19;;;8.71;82.33
43420;BME280;29017;51.514;-0.178;2023-01-31T04:32:32;102074.09;;;8.70;81.99
43420;BME280;29017;51.514;-0.178;2023-01-31T04:34:59;102074.09;;;8.70;82.45
43420;BME280;29017;51.514;-0.178;2023-01-31T04:37:28;102081.03;;;8.71;82.87
43420;BME280;29017;51.514;-0.178;2023-01-31T04:39:55;102069.59;;;8.72;82.42
43420;BME280;29017;51.514;-0.178;2023-01-31T04:42:22;102073.06;;;8.73;82.61
43420;BME280;29017;51.514;-0.178;2023-01-31T04:44:49;102061.81;;;8.71;82.35
43420;BME280;29017;51.514;-0.178;2023-01-31T04:47:16;102061.91;;;8.69;82.27
43420;BME280;29017;51.514;-0.178;2023-01-31T04:49:43;102066.13;;;8.72;82.73
43420;BME280;29017;51.514;-0.178;2023-01-31T04:52:10;102071.38;;;8.72;82.70
43420;BME280;29017;51.514;-0.178;2023-01-31T04:54:38;102060.88;;;8.72;82.78
43420;BME280;29017;51.514;-0.178;2023-01-31T04:57:05;102063.41;;;8.73;83.18
43420;BME280;29017;51.514;-0.178;2023-01-31T04:59:32;102060.66;;;8.75;83.14
43420;BME280;29017;51.514;-0.178;2023-01-31T05:01:59;102054.47;;;8.76;83.32
43420;BME280;29017;51.514;-0.178;2023-01-31T05:04:26;102048.16;;;8.78;83.48
43420;BME280;29017;51.514;-0.178;2023-01-31T05:06:53;102044.47;;;8.81;83.63
43420;BME280;29017;51.514;-0.178;2023-01-31T05:09:20;102056.53;;;8.83;83.92
43420;BME280;29017;51.514;-0.178;2023-01-31T05:11:48;102054.63;;;8.85;83.48
43420;BME280;29017;51.514;-0.178;2023-01-31T05:14:15;102050.44;;;8.83;83.87
43420;BME280;29017;51.514;-0.178;2023-01-31T05:16:43;102047.94;;;8.81;83.90
43420;BME280;29017;51.514;-0.178;2023-01-31T05:19:14;102041.84;;;8.81;83.92
43420;BME280;29017;51.514;-0.178;2023-01-31T05:21:41;102046.03;;;8.83;84.36
43420;BME280;29017;51.514;-0.178;2023-01-31T05:24:11;102047.09;;;8.81;84.07
43420;BME280;29017;51.514;-0.178;2023-01-31T05:26:39;102041.59;;;8.84;83.70
43420;BME280;29017;51.514;-0.178;2023-01-31T05:29:06;102043.28;;;8.85;84.07
43420;BME280;29017;51.514;-0.178;2023-01-31T05:31:33;102037.00;;;8.87;84.54
43420;BME280;29017;51.514;-0.178;2023-01-31T05:34:00;102034.22;;;8.89;83.84
43420;BME280;29017;51.514;-0.178;2023-01-31T05:36:28;102035.81;;;8.91;84.60
43420;BME280;29017;51.514;-0.178;2023-01-31T05:38:55;102042.94;;;8.89;84.38
43420;BME280;29017;51.514;-0.178;2023-01-31T05:41:22;102045.38;;;8.92;84.57
43420;BME280;29017;51.514;-0.178;2023-01-31T05:43:49;102040.31;;;8.89;84.23
43420;BME280;29017;51.514;-0.178;2023-01-31T05:46:16;102034.22;;;8.89;84.47
43420;BME280;29017;51.514;-0.178;2023-01-31T05:48:43;102028.03;;;8.90;84.31
43420;BME280;29017;51.514;-0.178;2023-01-31T05:51:10;102017.78;;;8.87;83.87
43420;BME280;29017;51.514;-0.178;2023-01-31T05:53:37;102017.69;;;8.88;84.81
43420;BME280;29017;51.514;-0.178;2023-01-31T05:56:04;102019.22;;;8.91;85.05
43420;BME280;29017;51.514;-0.178;2023-01-31T05:58:32;102015.56;;;8.93;84.83
43420;BME280;29017;51.514;-0.178;2023-01-31T06:00:59;102008.50;;;8.94;84.53
43420;BME280;29017;51.514;-0.178;2023-01-31T06:03:26;102004.91;;;8.95;84.13
43420;BME280;29017;51.514;-0.178;2023-01-31T06:05:53;101996.94;;;8.96;84.86
43420;BME280;29017;51.514;-0.178;2023-01-31T06:08:20;102006.38;;;8.99;85.01
43420;BME280;29017;51.514;-0.178;2023-01-31T06:10:47;102007.53;;;8.95;84.77
43420;BME280;29017;51.514;-0.178;2023-01-31T06:13:14;102003.25;;;8.94;84.98
43420;BME280;29017;51.514;-0.178;2023-01-31T06:15:42;102004.22;;;8.93;85.21
43420;BME280;29017;51.514;-0.178;2023-01-31T06:18:09;102009.47;;;8.93;85.05
43420;BME280;29017;51.514;-0.178;2023-01-31T06:20:36;102013.88;;;8.92;85.13
43420;BME280;29017;51.514;-0.178;2023-01-31T06:23:04;102001.69;;;8.91;85.64
43420;BME280;29017;51.514;-0.178;2023-01-31T06:25:31;101998.13;;;8.92;85.87
43420;BME280;29017;51.514;-0.178;2023-01-31T06:27:58;102003.47;;;8.91;85.76
43420;BME280;29017;51.514;-0.178;2023-01-31T06:30:25;102002.53;;;8.92;85.17
43420;BME280;29017;51.514;-0.178;2023-01-31T06:32:53;102002.63;;;8.90;86.03
43420;BME280;29017;51.514;-0.178;2023-01-31T06:35:20;102008.63;;;8.92;85.76
43420;BME280;29017;51.514;-0.178;2023-01-31T06:37:47;102006.84;;;8.93;85.72
43420;BME280;29017;51.514;-0.178;2023-01-31T06:40:15;101998.72;;;8.96;86.09
43420;BME280;29017;51.514;-0.178;2023-01-31T06:42:42;101978.47;;;8.98;86.55
43420;BME280;29017;51.514;-0.178;2023-01-31T06:45:09;101989.66;;;9.00;86.62
43420;BME280;29017;51.514;-0.178;2023-01-31T06:47:36;101987.03;;;9.00;86.53
43420;BME280;29017;51.514;-0.178;2023-01-31T06:50:04;101985.25;;;9.00;86.38
43420;BME280;29017;51.514;-0.178;2023-01-31T06:52:31;101970.25;;;9.02;86.20
43420;BME280;29017;51.514;-0.178;2023-01-31T06:54:59;101984.22;;;9.03;86.10
43420;BME280;29017;51.514;-0.178;2023-01-31T06:57:26;101983.47;;;9.01;86.42
43420;BME280;29017;51.514;-0.178;2023-01-31T06:59:53;101984.41;;;9.00;86.14
43420;BME280;29017;51.514;-0.178;2023-01-31T07:02:20;101980.84;;;9.01;86.38
43420;BME280;29017;51.514;-0.178;2023-01-31T07:04:47;101979.16;;;9.00;86.39
43420;BME280;29017;51.514;-0.178;2023-01-31T07:07:14;101983.59;;;8.99;86.63
43420;BME280;29017;51.514;-0.178;2023-01-31T07:09:42;101973.91;;;9.00;86.30
43420;BME280;29017;51.514;-0.178;2023-01-31T07:12:09;101972.97;;;9.01;86.63
43420;BME280;29017;51.514;-0.178;2023-01-31T07:14:36;101970.25;;;9.02;86.55
43420;BME280;29017;51.514;-0.178;2023-01-31T07:17:03;101986.59;;;9.06;87.21
43420;BME280;29017;51.514;-0.178;2023-01-31T07:19:30;101980.91;;;9.12;87.57
43420;BME280;29017;51.514;-0.178;2023-01-31T07:21:57;101986.38;;;9.09;86.58
43420;BME280;29017;51.514;-0.178;2023-01-31T07:24:24;101973.25;;;9.09;86.48
43420;BME280;29017;51.514;-0.178;2023-01-31T07:26:52;101976.94;;;9.07;86.62
43420;BME280;29017;51.514;-0.178;2023-01-31T07:29:20;101976.94;;;9.07;86.46
43420;BME280;29017;51.514;-0.178;2023-01-31T07:31:48;101971.69;;;9.07;86.77
43420;BME280;29017;51.514;-0.178;2023-01-31T07:34:27;101975.03;;;9.09;86.71
43420;BME280;29017;51.514;-0.178;2023-01-31T07:37:51;101981.84;;;9.11;87.03
43420;BME280;29017;51.514;-0.178;2023-01-31T07:41:13;101983.41;;;9.14;86.48
43420;BME280;29017;51.514;-0.178;2023-01-31T07:43:40;101982.34;;;9.16;86.55
43420;BME280;29017;51.514;-0.178;2023-01-31T07:46:07;101984.75;;;9.19;86.68
43420;BME280;29017;51.514;-0.178;2023-01-31T07:48:36;101978.50;;;9.20;86.16
43420;BME280;29017;51.514;-0.178;2023-01-31T07:51:03;101970.44;;;9.23;86.44
43420;BME280;29017;51.514;-0.178;2023-01-31T07:53:34;101977.13;;;9.27;86.73
43420;BME280;29017;51.514;-0.178;2023-01-31T07:58:35;101979.03;;;9.36;87.22
43420;BME280;29017;51.514;-0.178;2023-01-31T08:01:02;101981.78;;;9.35;86.61
43420;BME280;29017;51.514;-0.178;2023-01-31T08:03:35;101996.22;;;9.40;87.57
43420;BME280;29017;51.514;-0.178;2023-01-31T08:06:07;101996.84;;;9.55;91.73
43420;BME280;29017;51.514;-0.178;2023-01-31T08:08:40;102000.81;;;9.72;92.54
43420;BME280;29017;51.514;-0.178;2023-01-31T08:11:29;101997.13;;;9.74;89.41
43420;BME280;29017;51.514;-0.178;2023-01-31T08:14:23;102002.50;;;9.73;87.34
43420;BME280;29017;51.514;-0.178;2023-01-31T08:16:51;101996.31;;;9.74;87.31
43420;BME280;29017;51.514;-0.178;2023-01-31T08:19:18;101997.13;;;9.74;87.39
43420;BME280;29017;51.514;-0.178;2023-01-31T08:21:45;101997.63;;;9.79;86.77
43420;BME280;29017;51.514;-0.178;2023-01-31T08:24:12;101992.00;;;9.84;86.93
43420;BME280;29017;51.514;-0.178;2023-01-31T08:26:40;101986.50;;;9.87;86.99
43420;BME280;29017;51.514;-0.178;2023-01-31T08:29:08;101993.91;;;9.93;86.52
43420;BME280;29017;51.514;-0.178;2023-01-31T08:31:35;101993.66;;;9.96;86.68
43420;BME280;29017;51.514;-0.178;2023-01-31T08:34:02;101982.09;;;9.99;85.98
43420;BME280;29017;51.514;-0.178;2023-01-31T08:36:29;101962.84;;;9.98;85.73
43420;BME280;29017;51.514;-0.178;2023-01-31T08:38:58;101968.09;;;9.98;86.09
43420;BME280;29017;51.514;-0.178;2023-01-31T08:41:26;101969.41;;;10.04;86.23
43420;BME280;29017;51.514;-0.178;2023-01-31T08:43:53;101982.19;;;10.08;86.18
43420;BME280;29017;51.514;-0.178;2023-01-31T08:46:25;101974.19;;;10.10;86.38
43420;BME280;29017;51.514;-0.178;2023-01-31T08:48:53;101974.66;;;10.15;86.04
43420;BME280;29017;51.514;-0.178;2023-01-31T08:51:20;101971.09;;;10.16;85.75
43420;BME280;29017;51.514;-0.178;2023-01-31T08:53:47;101965.94;;;10.14;85.26
43420;BME280;29017;51.514;-0.178;2023-01-31T08:56:15;101979.09;;;10.14;85.49
43420;BME280;29017;51.514;-0.178;2023-01-31T08:58:42;101973.09;;;10.12;85.69
43420;BME280;29017;51.514;-0.178;2023-01-31T09:01:11;101971.09;;;10.16;85.73
43420;BME280;29017;51.514;-0.178;2023-01-31T09:03:38;101964.66;;;10.20;86.39
43420;BME280;29017;51.514;-0.178;2023-01-31T09:06:06;101969.66;;;10.23;86.02
43420;BME280;29017;51.514;-0.178;2023-01-31T09:08:33;101968.59;;;10.25;85.75
43420;BME280;29017;51.514;-0.178;2023-01-31T09:11:01;101973.69;;;10.27;85.53
43420;BME280;29017;51.514;-0.178;2023-01-31T09:13:29;101965.31;;;10.33;85.60
43420;BME280;29017;51.514;-0.178;2023-01-31T09:18:25;101965.03;;;10.47;85.55
43420;BME280;29017;51.514;-0.178;2023-01-31T09:20:52;101964.56;;;10.53;85.00
43420;BME280;29017;51.514;-0.178;2023-01-31T09:23:19;101951.97;;;10.57;84.53
43420;BME280;29017;51.514;-0.178;2023-01-31T09:28:16;101957.47;;;10.65;84.21
43420;BME280;29017;51.514;-0.178;2023-01-31T09:30:43;101959.22;;;10.76;85.10
43420;BME280;29017;51.514;-0.178;2023-01-31T09:33:10;101969.84;;;10.85;86.76
43420;BME280;29017;51.514;-0.178;2023-01-31T09:35:38;101969.00;;;10.85;85.07
43420;BME280;29017;51.514;-0.178;2023-01-31T09:38:05;101966.84;;;10.79;84.27
43420;BME280;29017;51.514;-0.178;2023-01-31T09:40:33;101958.97;;;10.79;84.12
43420;BME280;29017;51.514;-0.178;2023-01-31T09:43:01;101955.50;;;10.78;84.62
43420;BME280;29017;51.514;-0.178;2023-01-31T09:45:31;101968.81;;;10.77;84.83
43420;BME280;29017;51.514;-0.178;2023-01-31T09:47:59;101962.31;;;10.81;84.66
43420;BME280;29017;51.514;-0.178;2023-01-31T09:52:57;101971.88;;;10.82;83.94
43420;BME280;29017;51.514;-0.178;2023-01-31T09:55:28;101964.78;;;10.82;83.90
43420;BME280;29017;51.514;-0.178;2023-01-31T09:58:00;101968.16;;;10.84;84.51
43420;BME280;29017;51.514;-0.178;2023-01-31T10:13:04;101984.97;;;10.93;84.25
43420;BME280;29017;51.514;-0.178;2023-01-31T10:15:39;101992.88;;;10.93;84.31
43420;BME280;29017;51.514;-0.178;2023-01-31T10:18:10;101995.41;;;10.94;84.09
43420;BME280;29017;51.514;-0.178;2023-01-31T10:20:42;102005.66;;;10.97;84.37
43420;BME280;29017;51.514;-0.178;2023-01-31T10:25:43;102000.16;;;11.00;84.33
43420;BME280;29017;51.514;-0.178;2023-01-31T10:28:15;101988.69;;;11.01;84.39
43420;BME280;29017;51.514;-0.178;2023-01-31T10:30:47;101984.25;;;11.02;84.57
43420;BME280;29017;51.514;-0.178;2023-01-31T10:35:44;101986.22;;;11.09;85.32
43420;BME280;29017;51.514;-0.178;2023-01-31T10:38:16;101992.78;;;11.15;85.08
43420;BME280;29017;51.514;-0.178;2023-01-31T10:40:46;101994.19;;;11.19;85.07
43420;BME280;29017;51.514;-0.178;2023-01-31T10:43:15;101986.75;;;11.24;85.17
43420;BME280;29017;51.514;-0.178;2023-01-31T10:45:44;101977.63;;;11.28;84.98
43420;BME280;29017;51.514;-0.178;2023-01-31T10:48:13;101969.47;;;11.31;85.30
43420;BME280;29017;51.514;-0.178;2023-01-31T10:55:40;101965.34;;;11.38;85.25
43420;BME280;29017;51.514;-0.178;2023-01-31T10:58:12;101968.41;;;11.43;85.78
43420;BME280;29017;51.514;-0.178;2023-01-31T11:00:40;101961.94;;;11.47;85.35
43420;BME280;29017;51.514;-0.178;2023-01-31T11:03:09;101968.47;;;11.53;84.69
43420;BME280;29017;51.514;-0.178;2023-01-31T11:05:38;101963.50;;;11.59;84.87
43420;BME280;29017;51.514;-0.178;2023-01-31T11:08:17;101964.09;;;11.63;85.10
43420;BME280;29017;51.514;-0.178;2023-01-31T11:13:17;101957.44;;;11.69;84.89
43420;BME280;29017;51.514;-0.178;2023-01-31T11:15:44;101954.00;;;11.68;85.22
43420;BME280;29017;51.514;-0.178;2023-01-31T11:18:14;101955.81;;;11.68;85.13
43420;BME280;29017;51.514;-0.178;2023-01-31T11:20:51;101954.56;;;11.72;85.99
43420;BME280;29017;51.514;-0.178;2023-01-31T11:23:20;101934.31;;;11.72;85.22
43420;BME280;29017;51.514;-0.178;2023-01-31T11:25:48;101940.47;;;11.73;85.14
43420;BME280;29017;51.514;-0.178;2023-01-31T11:30:46;101937.84;;;11.82;85.59
43420;BME280;29017;51.514;-0.178;2023-01-31T11:35:50;101928.59;;;11.97;84.97
43420;BME280;29017;51.514;-0.178;2023-01-31T11:38:18;101942.91;;;12.05;84.45
43420;BME280;29017;51.514;-0.178;2023-01-31T11:40:47;101928.34;;;12.10;84.45
43420;BME280;29017;51.514;-0.178;2023-01-31T11:45:45;101922.09;;;12.11;83.81
43420;BME280;29017;51.514;-0.178;2023-01-31T11:50:43;101911.72;;;12.29;83.99
43420;BME280;29017;51.514;-0.178;2023-01-31T11:55:41;101909.53;;;12.43;83.16
43420;BME280;29017;51.514;-0.178;2023-01-31T12:00:38;101909.53;;;12.63;82.96
43420;BME280;29017;51.514;-0.178;2023-01-31T12:03:13;101897.56;;;12.68;82.44
43420;BME280;29017;51.514;-0.178;2023-01-31T12:05:42;101906.75;;;12.74;82.89
43420;BME280;29017;51.514;-0.178;2023-01-31T12:10:41;101897.25;;;12.81;81.67
43420;BME280;29017;51.514;-0.178;2023-01-31T12:13:12;101894.50;;;12.82;81.85
43420;BME280;29017;51.514;-0.178;2023-01-31T12:15:45;101893.34;;;12.85;81.73
43420;BME280;29017;51.514;-0.178;2023-01-31T12:18:16;101883.50;;;12.87;81.50
43420;BME280;29017;51.514;-0.178;2023-01-31T12:20:49;101869.19;;;12.90;81.31
43420;BME280;29017;51.514;-0.178;2023-01-31T12:23:28;101881.81;;;12.96;81.51
43420;BME280;29017;51.514;-0.178;2023-01-31T12:31:04;101872.47;;;13.01;80.88
43420;BME280;29017;51.514;-0.178;2023-01-31T12:53:40;101872.72;;;13.27;80.16
43420;BME280;29017;51.514;-0.178;2023-01-31T13:03:37;101880.66;;;13.27;79.23
43420;BME280;29017;51.514;-0.178;2023-01-31T13:06:12;101876.50;;;13.24;78.59
43420;BME280;29017;51.514;-0.178;2023-01-31T13:08:42;101883.06;;;13.20;78.46
43420;BME280;29017;51.514;-0.178;2023-01-31T13:14:01;101882.34;;;13.09;78.73
43420;BME280;29017;51.514;-0.178;2023-01-31T13:16:30;101888.75;;;13.06;78.13
43420;BME280;29017;51.514;-0.178;2023-01-31T13:19:01;101893.34;;;13.04;77.27
43420;BME280;29017;51.514;-0.178;2023-01-31T13:21:30;101888.06;;;13.04;77.60
43420;BME280;29017;51.514;-0.178;2023-01-31T13:24:01;101893.34;;;13.04;78.44
43420;BME280;29017;51.514;-0.178;2023-01-31T13:31:29;101907.97;;;12.99;77.70
43420;BME280;29017;51.514;-0.178;2023-01-31T13:34:04;101901.72;;;13.00;77.66
43420;BME280;29017;51.514;-0.178;2023-01-31T13:36:37;101899.91;;;13.00;77.56
43420;BME280;29017;51.514;-0.178;2023-01-31T13:39:12;101889.16;;;13.02;76.52
43420;BME280;29017;51.514;-0.178;2023-01-31T13:41:41;101877.50;;;13.04;75.91
43420;BME280;29017;51.514;-0.178;2023-01-31T13:44:10;101883.75;;;13.03;74.79
43420;BME280;29017;51.514;-0.178;2023-01-31T13:51:37;101864.44;;;12.93;73.49
43420;BME280;29017;51.514;-0.178;2023-01-31T13:54:12;101860.25;;;12.91;74.29
43420;BME280;29017;51.514;-0.178;2023-01-31T13:56:41;101860.84;;;12.84;72.35
43420;BME280;29017;51.514;-0.178;2023-01-31T13:59:16;101865.31;;;12.84;71.41
43420;BME280;29017;51.514;-0.178;2023-01-31T14:01:46;101867.09;;;12.83;71.41
43420;BME280;29017;51.514;-0.178;2023-01-31T14:11:46;101868.91;;;12.83;71.18
43420;BME280;29017;51.514;-0.178;2023-01-31T14:14:17;101871.69;;;12.81;70.97
43420;BME280;29017;51.514;-0.178;2023-01-31T14:16:45;101888.50;;;12.80;70.08
43420;BME280;29017;51.514;-0.178;2023-01-31T14:21:42;101889.22;;;12.82;66.85
43420;BME280;29017;51.514;-0.178;2023-01-31T14:24:17;101888.66;;;12.89;66.63
43420;BME280;29017;51.514;-0.178;2023-01-31T14:29:14;101895.56;;;13.09;65.82
43420;BME280;29017;51.514;-0.178;2023-01-31T14:31:42;101909.47;;;13.20;65.15
43420;BME280;29017;51.514;-0.178;2023-01-31T14:36:43;101913.03;;;13.39;64.95
43420;BME280;29017;51.514;-0.178;2023-01-31T14:44:21;101925.34;;;13.57;61.70
43420;BME280;29017;51.514;-0.178;2023-01-31T14:47:00;101922.16;;;13.54;61.49
43420;BME280;29017;51.514;-0.178;2023-01-31T14:54:34;101938.22;;;13.33;60.74
43420;BME280;29017;51.514;-0.178;2023-01-31T14:59:34;101951.78;;;13.20;61.17
43420;BME280;29017;51.514;-0.178;2023-01-31T15:04:34;101951.75;;;13.01;60.42
43420;BME280;29017;51.514;-0.178;2023-01-31T15:07:01;101964.13;;;12.91;60.67
43420;BME280;29017;51.514;-0.178;2023-01-31T15:11:58;101950.63;;;12.75;61.48
43420;BME280;29017;51.514;-0.178;2023-01-31T15:17:04;101937.72;;;12.62;62.50
43420;BME280;29017;51.514;-0.178;2023-01-31T15:19:33;101939.25;;;12.55;62.83
43420;BME280;29017;51.514;-0.178;2023-01-31T15:22:06;101931.59;;;12.52;62.55
43420;BME280;29017;51.514;-0.178;2023-01-31T15:24:37;101943.25;;;12.50;62.55
43420;BME280;29017;51.514;-0.178;2023-01-31T15:27:06;101947.88;;;12.48;62.69
43420;BME280;29017;51.514;-0.178;2023-01-31T15:32:07;101958.00;;;12.42;59.61
43420;BME280;29017;51.514;-0.178;2023-01-31T15:34:43;101953.56;;;12.43;58.97
43420;BME280;29017;51.514;-0.178;2023-01-31T15:37:14;101959.69;;;12.43;59.02
43420;BME280;29017;51.514;-0.178;2023-01-31T15:39:49;101954.41;;;12.43;58.64
43420;BME280;29017;51.514;-0.178;2023-01-31T15:42:19;101964.25;;;12.41;59.15
43420;BME280;29017;51.514;-0.178;2023-01-31T15:44:47;101962.44;;;12.42;59.12
43420;BME280;29017;51.514;-0.178;2023-01-31T15:47:18;101961.59;;;12.41;58.88
43420;BME280;29017;51.514;-0.178;2023-01-31T15:49:45;101973.84;;;12.42;60.26
43420;BME280;29017;51.514;-0.178;2023-01-31T15:57:14;101966.16;;;12.39;59.25
43420;BME280;29017;51.514;-0.178;2023-01-31T15:59:42;101973.41;;;12.37;59.07
43420;BME280;29017;51.514;-0.178;2023-01-31T16:02:15;101969.66;;;12.40;59.49